sensor_id;sensor_type;location;lat;lon;timestamp;P1;durP1;ratioP1;P2;durP2;ratioP2
79330;SDS011;68797;49.782;19.054;2023-04-24T00:01:37;14.40;;;7.38;;
79330;SDS011;68797;49.782;19.054;2023-04-24T00:04:06;14.18;;;6.47;;
79330;SDS011;68797;49.782;19.054;2023-04-24T00:06:37;11.73;;;7.20;;
79330;SDS011;68797;49.782;19.054;2023-04-24T00:11:32;12.70;;;6.47;;
79330;SDS011;68797;49.782;19.054;2023-04-24T00:16:25;10.18;;;6.70;;
79330;SDS011;68797;49.782;19.054;2023-04-24T00:18:53;15.20;;;7.15;;
79330;SDS011;68797;49.782;19.054;2023-04-24T00:21:20;12.32;;;7.13;;
79330;SDS011;68797;49.782;19.054;2023-04-24T00:23:51;11.70;;;6.70;;
79330;SDS011;68797;49.782;19.054;2023-04-24T00:26:18;11.02;;;6.93;;
79330;SDS011;68797;49.782;19.054;2023-04-24T00:28:45;10.13;;;6.65;;
79330;SDS011;68797;49.782;19.054;2023-04-24T00:31:11;12.85;;;6.90;;
79330;SDS011;68797;49.782;19.054;2023-04-24T00:33:37;11.57;;;7.10;;
79330;SDS011;68797;49.782;19.054;2023-04-24T00:36:07;10.30;;;6.57;;
79330;SDS011;68797;49.782;19.054;2023-04-24T00:38:34;12.07;;;6.70;;
79330;SDS011;68797;49.782;19.054;2023-04-24T00:41:00;12.20;;;6.95;;
79330;SDS011;68797;49.782;19.054;2023-04-24T00:43:27;13.00;;;6.63;;
79330;SDS011;68797;49.782;19.054;2023-04-24T00:45:54;12.25;;;6.72;;
79330;SDS011;68797;49.782;19.054;2023-04-24T00:48:22;10.50;;;6.75;;
79330;SDS011;68797;49.782;19.054;2023-04-24T00:50:50;13.57;;;5.93;;
79330;SDS011;68797;49.782;19.054;2023-04-24T00:53:19;12.35;;;5.85;;
79330;SDS011;68797;49.782;19.054;2023-04-24T00:55:48;9.82;;;5.80;;
79330;SDS011;68797;49.782;19.054;2023-04-24T00:58:15;10.10;;;6.05;;
79330;SDS011;68797;49.782;19.054;2023-04-24T01:00:43;8.40;;;5.32;;
79330;SDS011;68797;49.782;19.054;2023-04-24T01:03:13;10.80;;;5.65;;
79330;SDS011;68797;49.782;19.054;2023-04-24T01:05:40;10.52;;;6.18;;
79330;SDS011;68797;49.782;19.054;2023-04-24T01:08:09;9.32;;;5.82;;
79330;SDS011;68797;49.782;19.054;2023-04-24T01:10:38;10.38;;;6.50;;
79330;SDS011;68797;49.782;19.054;2023-04-24T01:13:09;7.85;;;5.75;;
79330;SDS011;68797;49.782;19.054;2023-04-24T01:15:37;7.43;;;5.50;;
79330;SDS011;68797;49.782;19.054;2023-04-24T01:18:04;9.50;;;5.75;;
79330;SDS011;68797;49.782;19.054;2023-04-24T01:20:33;8.02;;;5.10;;
79330;SDS011;68797;49.782;19.054;2023-04-24T01:23:17;11.38;;;6.03;;
79330;SDS011;68797;49.782;19.054;2023-04-24T01:25:44;9.63;;;4.97;;
79330;SDS011;68797;49.782;19.054;2023-04-24T01:30:40;8.50;;;5.57;;
79330;SDS011;68797;49.782;19.054;2023-04-24T01:33:07;10.07;;;5.72;;
79330;SDS011;68797;49.782;19.054;2023-04-24T01:38:04;11.57;;;5.45;;
79330;SDS011;68797;49.782;19.054;2023-04-24T01:40:32;7.75;;;5.20;;
79330;SDS011;68797;49.782;19.054;2023-04-24T01:42:59;10.30;;;5.35;;
79330;SDS011;68797;49.782;19.054;2023-04-24T01:45:27;7.07;;;5.20;;
79330;SDS011;68797;49.782;19.054;2023-04-24T01:47:56;6.95;;;4.88;;
79330;SDS011;68797;49.782;19.054;2023-04-24T01:50:24;8.60;;;6.15;;
79330;SDS011;68797;49.782;19.054;2023-04-24T01:52:52;9.98;;;5.20;;
79330;SDS011;68797;49.782;19.054;2023-04-24T01:55:22;9.05;;;5.43;;
79330;SDS011;68797;49.782;19.054;2023-04-24T01:57:52;8.55;;;5.78;;
79330;SDS011;68797;49.782;19.054;2023-04-24T02:00:24;9.98;;;4.72;;
79330;SDS011;68797;49.782;19.054;2023-04-24T02:02:52;8.25;;;4.55;;
79330;SDS011;68797;49.782;19.054;2023-04-24T02:05:21;9.02;;;5.45;;
79330;SDS011;68797;49.782;19.054;2023-04-24T02:07:47;10.02;;;5.43;;
79330;SDS011;68797;49.782;19.054;2023-04-24T02:10:25;8.30;;;5.10;;
79330;SDS011;68797;49.782;19.054;2023-04-24T02:12:52;7.72;;;4.93;;
79330;SDS011;68797;49.782;19.054;2023-04-24T02:15:32;8.95;;;5.78;;
79330;SDS011;68797;49.782;19.054;2023-04-24T02:17:59;11.10;;;5.45;;
79330;SDS011;68797;49.782;19.054;2023-04-24T02:20:26;11.32;;;5.20;;
79330;SDS011;68797;49.782;19.054;2023-04-24T02:25:23;8.23;;;4.95;;
79330;SDS011;68797;49.782;19.054;2023-04-24T02:27:50;8.85;;;4.95;;
79330;SDS011;68797;49.782;19.054;2023-04-24T02:30:17;8.07;;;5.00;;
79330;SDS011;68797;49.782;19.054;2023-04-24T02:32:46;6.60;;;4.63;;
79330;SDS011;68797;49.782;19.054;2023-04-24T02:35:13;6.47;;;4.30;;
79330;SDS011;68797;49.782;19.054;2023-04-24T02:37:40;5.88;;;4.35;;
79330;SDS011;68797;49.782;19.054;2023-04-24T02:40:09;10.23;;;4.68;;
79330;SDS011;68797;49.782;19.054;2023-04-24T02:42:37;10.00;;;4.60;;
79330;SDS011;68797;49.782;19.054;2023-04-24T02:45:04;10.25;;;5.38;;
79330;SDS011;68797;49.782;19.054;2023-04-24T02:47:31;6.90;;;4.75;;
79330;SDS011;68797;49.782;19.054;2023-04-24T02:49:59;8.57;;;4.90;;
79330;SDS011;68797;49.782;19.054;2023-04-24T02:52:26;5.75;;;4.22;;
79330;SDS011;68797;49.782;19.054;2023-04-24T02:54:52;7.57;;;4.65;;
79330;SDS011;68797;49.782;19.054;2023-04-24T02:59:49;7.07;;;3.88;;
79330;SDS011;68797;49.782;19.054;2023-04-24T03:02:15;6.88;;;4.72;;
79330;SDS011;68797;49.782;19.054;2023-04-24T03:04:45;6.45;;;5.10;;
79330;SDS011;68797;49.782;19.054;2023-04-24T03:07:14;6.88;;;3.97;;
79330;SDS011;68797;49.782;19.054;2023-04-24T03:09:41;7.30;;;4.50;;
79330;SDS011;68797;49.782;19.054;2023-04-24T03:12:08;7.05;;;5.05;;
79330;SDS011;68797;49.782;19.054;2023-04-24T03:14:35;7.15;;;4.68;;
79330;SDS011;68797;49.782;19.054;2023-04-24T03:17:02;6.72;;;4.20;;
79330;SDS011;68797;49.782;19.054;2023-04-24T03:19:29;7.72;;;4.93;;
79330;SDS011;68797;49.782;19.054;2023-04-24T03:22:16;7.25;;;5.15;;
79330;SDS011;68797;49.782;19.054;2023-04-24T03:24:42;7.43;;;4.65;;
79330;SDS011;68797;49.782;19.054;2023-04-24T03:27:09;8.20;;;4.40;;
79330;SDS011;68797;49.782;19.054;2023-04-24T03:30:00;6.28;;;4.53;;
79330;SDS011;68797;49.782;19.054;2023-04-24T03:32:49;7.20;;;4.53;;
79330;SDS011;68797;49.782;19.054;2023-04-24T03:35:23;8.15;;;4.93;;
79330;SDS011;68797;49.782;19.054;2023-04-24T03:37:50;9.82;;;4.78;;
79330;SDS011;68797;49.782;19.054;2023-04-24T03:40:37;6.88;;;4.18;;
79330;SDS011;68797;49.782;19.054;2023-04-24T03:43:11;7.20;;;4.75;;
79330;SDS011;68797;49.782;19.054;2023-04-24T03:45:38;10.07;;;4.95;;
79330;SDS011;68797;49.782;19.054;2023-04-24T03:48:04;7.93;;;4.43;;
79330;SDS011;68797;49.782;19.054;2023-04-24T03:52:59;7.57;;;4.00;;
79330;SDS011;68797;49.782;19.054;2023-04-24T03:58:05;7.97;;;4.72;;
79330;SDS011;68797;49.782;19.054;2023-04-24T04:00:33;5.80;;;4.07;;
79330;SDS011;68797;49.782;19.054;2023-04-24T04:03:35;9.60;;;4.70;;
79330;SDS011;68797;49.782;19.054;2023-04-24T04:06:03;9.30;;;4.38;;
79330;SDS011;68797;49.782;19.054;2023-04-24T04:08:29;7.55;;;4.70;;
79330;SDS011;68797;49.782;19.054;2023-04-24T04:11:01;10.82;;;4.57;;
79330;SDS011;68797;49.782;19.054;2023-04-24T04:13:29;9.55;;;4.95;;
79330;SDS011;68797;49.782;19.054;2023-04-24T04:16:01;5.28;;;3.70;;
79330;SDS011;68797;49.782;19.054;2023-04-24T04:18:30;8.18;;;4.15;;
79330;SDS011;68797;49.782;19.054;2023-04-24T04:20:56;9.70;;;4.90;;
79330;SDS011;68797;49.782;19.054;2023-04-24T04:23:25;7.97;;;4.82;;
79330;SDS011;68797;49.782;19.054;2023-04-24T04:26:14;6.25;;;4.32;;
79330;SDS011;68797;49.782;19.054;2023-04-24T04:28:59;7.88;;;4.57;;
79330;SDS011;68797;49.782;19.054;2023-04-24T04:31:49;8.40;;;5.05;;
79330;SDS011;68797;49.782;19.054;2023-04-24T04:34:37;7.30;;;4.13;;
79330;SDS011;68797;49.782;19.054;2023-04-24T04:37:28;11.15;;;4.72;;
79330;SDS011;68797;49.782;19.054;2023-04-24T04:40:09;10.57;;;4.82;;
79330;SDS011;68797;49.782;19.054;2023-04-24T04:42:47;7.80;;;4.65;;
79330;SDS011;68797;49.782;19.054;2023-04-24T04:45:15;7.15;;;5.13;;
79330;SDS011;68797;49.782;19.054;2023-04-24T04:48:09;11.23;;;5.70;;
79330;SDS011;68797;49.782;19.054;2023-04-24T04:50:39;11.43;;;5.30;;
79330;SDS011;68797;49.782;19.054;2023-04-24T04:53:28;9.10;;;5.63;;
79330;SDS011;68797;49.782;19.054;2023-04-24T04:55:54;11.02;;;5.53;;
79330;SDS011;68797;49.782;19.054;2023-04-24T04:58:25;11.43;;;5.93;;
79330;SDS011;68797;49.782;19.054;2023-04-24T05:00:56;9.60;;;4.97;;
79330;SDS011;68797;49.782;19.054;2023-04-24T05:03:38;9.18;;;5.55;;
79330;SDS011;68797;49.782;19.054;2023-04-24T05:06:09;9.77;;;5.43;;
79330;SDS011;68797;49.782;19.054;2023-04-24T05:08:40;5.82;;;4.50;;
79330;SDS011;68797;49.782;19.054;2023-04-24T05:11:16;6.32;;;4.93;;
79330;SDS011;68797;49.782;19.054;2023-04-24T05:14:11;6.75;;;4.55;;
79330;SDS011;68797;49.782;19.054;2023-04-24T05:16:43;5.45;;;4.45;;
79330;SDS011;68797;49.782;19.054;2023-04-24T05:19:20;7.00;;;4.13;;
79330;SDS011;68797;49.782;19.054;2023-04-24T05:21:48;8.07;;;4.47;;
79330;SDS011;68797;49.782;19.054;2023-04-24T05:24:14;5.53;;;4.28;;
79330;SDS011;68797;49.782;19.054;2023-04-24T05:27:00;9.68;;;4.78;;
79330;SDS011;68797;49.782;19.054;2023-04-24T05:29:39;7.13;;;4.15;;
79330;SDS011;68797;49.782;19.054;2023-04-24T05:32:09;6.43;;;4.38;;
79330;SDS011;68797;49.782;19.054;2023-04-24T05:34:36;7.28;;;4.57;;
79330;SDS011;68797;49.782;19.054;2023-04-24T05:37:04;6.97;;;4.70;;
79330;SDS011;68797;49.782;19.054;2023-04-24T05:39:34;12.40;;;5.63;;
79330;SDS011;68797;49.782;19.054;2023-04-24T05:42:03;7.75;;;4.50;;
79330;SDS011;68797;49.782;19.054;2023-04-24T05:44:31;8.52;;;4.72;;
79330;SDS011;68797;49.782;19.054;2023-04-24T05:46:59;6.55;;;4.45;;
79330;SDS011;68797;49.782;19.054;2023-04-24T05:49:37;8.73;;;5.38;;
79330;SDS011;68797;49.782;19.054;2023-04-24T05:52:05;7.72;;;4.55;;
79330;SDS011;68797;49.782;19.054;2023-04-24T05:54:37;11.82;;;7.03;;
79330;SDS011;68797;49.782;19.054;2023-04-24T05:57:05;10.70;;;5.20;;
79330;SDS011;68797;49.782;19.054;2023-04-24T05:59:49;10.60;;;4.65;;
79330;SDS011;68797;49.782;19.054;2023-04-24T06:02:17;7.95;;;4.32;;
79330;SDS011;68797;49.782;19.054;2023-04-24T06:04:59;9.35;;;4.88;;
79330;SDS011;68797;49.782;19.054;2023-04-24T06:07:28;7.35;;;4.90;;
79330;SDS011;68797;49.782;19.054;2023-04-24T06:09:56;6.22;;;4.28;;
79330;SDS011;68797;49.782;19.054;2023-04-24T06:12:24;8.23;;;4.50;;
79330;SDS011;68797;49.782;19.054;2023-04-24T06:15:00;13.30;;;5.35;;
79330;SDS011;68797;49.782;19.054;2023-04-24T06:17:48;5.05;;;4.30;;
79330;SDS011;68797;49.782;19.054;2023-04-24T06:20:18;9.00;;;5.57;;
79330;SDS011;68797;49.782;19.054;2023-04-24T06:22:45;6.88;;;4.38;;
79330;SDS011;68797;49.782;19.054;2023-04-24T06:25:13;5.55;;;4.47;;
79330;SDS011;68797;49.782;19.054;2023-04-24T06:30:09;10.20;;;4.40;;
79330;SDS011;68797;49.782;19.054;2023-04-24T06:32:39;8.32;;;5.80;;
79330;SDS011;68797;49.782;19.054;2023-04-24T06:35:07;6.95;;;4.75;;
79330;SDS011;68797;49.782;19.054;2023-04-24T06:37:35;6.45;;;4.63;;
79330;SDS011;68797;49.782;19.054;2023-04-24T06:40:05;6.53;;;4.70;;
79330;SDS011;68797;49.782;19.054;2023-04-24T06:42:38;6.70;;;4.63;;
79330;SDS011;68797;49.782;19.054;2023-04-24T06:45:08;7.43;;;4.03;;
79330;SDS011;68797;49.782;19.054;2023-04-24T06:47:36;6.85;;;4.32;;
79330;SDS011;68797;49.782;19.054;2023-04-24T06:50:05;7.65;;;4.88;;
79330;SDS011;68797;49.782;19.054;2023-04-24T06:52:33;7.68;;;4.70;;
79330;SDS011;68797;49.782;19.054;2023-04-24T06:55:00;6.65;;;4.25;;
79330;SDS011;68797;49.782;19.054;2023-04-24T06:57:32;6.43;;;4.10;;
79330;SDS011;68797;49.782;19.054;2023-04-24T06:59:58;7.90;;;4.63;;
79330;SDS011;68797;49.782;19.054;2023-04-24T07:02:27;7.10;;;4.40;;
79330;SDS011;68797;49.782;19.054;2023-04-24T07:04:54;7.32;;;5.25;;
79330;SDS011;68797;49.782;19.054;2023-04-24T07:07:23;4.78;;;4.28;;
79330;SDS011;68797;49.782;19.054;2023-04-24T07:09:49;11.88;;;4.78;;
79330;SDS011;68797;49.782;19.054;2023-04-24T07:12:16;10.60;;;4.57;;
79330;SDS011;68797;49.782;19.054;2023-04-24T07:14:46;8.50;;;4.75;;
79330;SDS011;68797;49.782;19.054;2023-04-24T07:17:12;15.52;;;5.35;;
79330;SDS011;68797;49.782;19.054;2023-04-24T07:19:38;8.73;;;5.38;;
79330;SDS011;68797;49.782;19.054;2023-04-24T07:22:08;11.88;;;4.97;;
79330;SDS011;68797;49.782;19.054;2023-04-24T07:24:34;8.77;;;5.38;;
79330;SDS011;68797;49.782;19.054;2023-04-24T07:27:04;7.10;;;4.32;;
79330;SDS011;68797;49.782;19.054;2023-04-24T07:29:31;6.43;;;4.93;;
79330;SDS011;68797;49.782;19.054;2023-04-24T07:31:57;9.35;;;3.88;;
79330;SDS011;68797;49.782;19.054;2023-04-24T07:36:53;15.60;;;8.50;;
79330;SDS011;68797;49.782;19.054;2023-04-24T07:39:19;10.88;;;5.15;;
79330;SDS011;68797;49.782;19.054;2023-04-24T07:41:47;7.30;;;5.03;;
79330;SDS011;68797;49.782;19.054;2023-04-24T07:44:14;5.72;;;4.47;;
79330;SDS011;68797;49.782;19.054;2023-04-24T07:46:42;9.75;;;5.80;;
79330;SDS011;68797;49.782;19.054;2023-04-24T07:49:08;8.35;;;4.57;;
79330;SDS011;68797;49.782;19.054;2023-04-24T07:51:38;7.65;;;4.88;;
79330;SDS011;68797;49.782;19.054;2023-04-24T07:54:07;6.75;;;4.25;;
79330;SDS011;68797;49.782;19.054;2023-04-24T07:56:35;6.90;;;4.57;;
79330;SDS011;68797;49.782;19.054;2023-04-24T07:59:05;9.40;;;4.80;;
79330;SDS011;68797;49.782;19.054;2023-04-24T08:01:38;15.18;;;5.15;;
79330;SDS011;68797;49.782;19.054;2023-04-24T08:04:04;9.10;;;4.20;;
79330;SDS011;68797;49.782;19.054;2023-04-24T08:06:31;7.72;;;4.30;;
79330;SDS011;68797;49.782;19.054;2023-04-24T08:11:28;7.22;;;4.57;;
79330;SDS011;68797;49.782;19.054;2023-04-24T08:13:55;8.05;;;4.60;;
79330;SDS011;68797;49.782;19.054;2023-04-24T08:16:24;5.72;;;4.15;;
79330;SDS011;68797;49.782;19.054;2023-04-24T08:18:50;7.90;;;4.25;;
79330;SDS011;68797;49.782;19.054;2023-04-24T08:21:20;7.03;;;4.80;;
79330;SDS011;68797;49.782;19.054;2023-04-24T08:24:08;6.43;;;4.45;;
79330;SDS011;68797;49.782;19.054;2023-04-24T08:26:35;5.55;;;3.70;;
79330;SDS011;68797;49.782;19.054;2023-04-24T08:29:04;20.52;;;4.43;;
79330;SDS011;68797;49.782;19.054;2023-04-24T08:31:33;6.72;;;4.10;;
79330;SDS011;68797;49.782;19.054;2023-04-24T08:34:00;4.15;;;3.65;;
79330;SDS011;68797;49.782;19.054;2023-04-24T08:36:31;6.57;;;4.25;;
79330;SDS011;68797;49.782;19.054;2023-04-24T08:38:58;6.03;;;4.15;;
79330;SDS011;68797;49.782;19.054;2023-04-24T08:41:25;10.77;;;4.68;;
79330;SDS011;68797;49.782;19.054;2023-04-24T08:43:53;11.65;;;4.43;;
79330;SDS011;68797;49.782;19.054;2023-04-24T08:46:22;11.35;;;4.22;;
79330;SDS011;68797;49.782;19.054;2023-04-24T08:48:50;11.55;;;4.43;;
79330;SDS011;68797;49.782;19.054;2023-04-24T08:51:20;5.72;;;4.43;;
79330;SDS011;68797;49.782;19.054;2023-04-24T08:53:49;9.52;;;4.95;;
79330;SDS011;68797;49.782;19.054;2023-04-24T08:56:18;9.43;;;4.75;;
79330;SDS011;68797;49.782;19.054;2023-04-24T08:58:46;9.15;;;5.00;;
79330;SDS011;68797;49.782;19.054;2023-04-24T09:01:13;17.38;;;4.93;;
79330;SDS011;68797;49.782;19.054;2023-04-24T09:03:41;11.95;;;6.60;;
79330;SDS011;68797;49.782;19.054;2023-04-24T09:06:09;7.20;;;4.85;;
79330;SDS011;68797;49.782;19.054;2023-04-24T09:08:39;8.57;;;4.88;;
79330;SDS011;68797;49.782;19.054;2023-04-24T09:11:10;27.52;;;5.63;;
79330;SDS011;68797;49.782;19.054;2023-04-24T09:13:39;18.63;;;5.00;;
79330;SDS011;68797;49.782;19.054;2023-04-24T09:16:06;17.98;;;5.30;;
79330;SDS011;68797;49.782;19.054;2023-04-24T09:18:34;5.78;;;4.53;;
79330;SDS011;68797;49.782;19.054;2023-04-24T09:21:03;16.10;;;6.03;;
79330;SDS011;68797;49.782;19.054;2023-04-24T09:23:34;12.30;;;4.90;;
79330;SDS011;68797;49.782;19.054;2023-04-24T09:26:03;13.88;;;5.15;;
79330;SDS011;68797;49.782;19.054;2023-04-24T09:28:38;5.47;;;4.63;;
79330;SDS011;68797;49.782;19.054;2023-04-24T09:33:37;7.57;;;4.60;;
79330;SDS011;68797;49.782;19.054;2023-04-24T09:36:05;7.95;;;4.60;;
79330;SDS011;68797;49.782;19.054;2023-04-24T09:38:36;5.93;;;5.25;;
79330;SDS011;68797;49.782;19.054;2023-04-24T09:41:05;8.20;;;4.65;;
79330;SDS011;68797;49.782;19.054;2023-04-24T09:43:33;11.02;;;5.13;;
79330;SDS011;68797;49.782;19.054;2023-04-24T09:46:10;10.30;;;5.03;;
79330;SDS011;68797;49.782;19.054;2023-04-24T09:48:37;9.77;;;6.10;;
79330;SDS011;68797;49.782;19.054;2023-04-24T09:51:05;10.60;;;5.30;;
79330;SDS011;68797;49.782;19.054;2023-04-24T09:53:45;14.38;;;5.68;;
79330;SDS011;68797;49.782;19.054;2023-04-24T09:56:18;8.68;;;4.97;;
79330;SDS011;68797;49.782;19.054;2023-04-24T09:58:48;8.48;;;4.90;;
79330;SDS011;68797;49.782;19.054;2023-04-24T10:03:42;16.63;;;4.97;;
79330;SDS011;68797;49.782;19.054;2023-04-24T10:08:37;12.40;;;5.35;;
79330;SDS011;68797;49.782;19.054;2023-04-24T10:11:03;14.70;;;4.70;;
79330;SDS011;68797;49.782;19.054;2023-04-24T10:13:36;7.30;;;4.90;;
79330;SDS011;68797;49.782;19.054;2023-04-24T10:16:07;35.58;;;7.70;;
79330;SDS011;68797;49.782;19.054;2023-04-24T10:18:33;13.52;;;5.95;;
79330;SDS011;68797;49.782;19.054;2023-04-24T10:21:00;8.35;;;5.40;;
79330;SDS011;68797;49.782;19.054;2023-04-24T10:23:30;9.60;;;5.18;;
79330;SDS011;68797;49.782;19.054;2023-04-24T10:25:58;10.38;;;5.38;;
79330;SDS011;68797;49.782;19.054;2023-04-24T10:28:26;8.70;;;4.65;;
79330;SDS011;68797;49.782;19.054;2023-04-24T10:30:54;11.93;;;4.95;;
79330;SDS011;68797;49.782;19.054;2023-04-24T10:33:23;6.30;;;4.93;;
79330;SDS011;68797;49.782;19.054;2023-04-24T10:35:54;8.18;;;5.60;;
79330;SDS011;68797;49.782;19.054;2023-04-24T10:38:25;7.38;;;4.93;;
79330;SDS011;68797;49.782;19.054;2023-04-24T10:41:08;8.43;;;5.25;;
79330;SDS011;68797;49.782;19.054;2023-04-24T10:43:35;6.45;;;4.47;;
79330;SDS011;68797;49.782;19.054;2023-04-24T10:46:05;8.23;;;5.22;;
79330;SDS011;68797;49.782;19.054;2023-04-24T10:48:32;9.43;;;5.50;;
79330;SDS011;68797;49.782;19.054;2023-04-24T10:51:00;7.13;;;5.45;;
79330;SDS011;68797;49.782;19.054;2023-04-24T10:53:29;7.97;;;5.53;;
79330;SDS011;68797;49.782;19.054;2023-04-24T10:56:08;8.13;;;5.43;;
79330;SDS011;68797;49.782;19.054;2023-04-24T10:58:39;10.52;;;6.07;;
79330;SDS011;68797;49.782;19.054;2023-04-24T11:01:27;10.35;;;5.82;;
79330;SDS011;68797;49.782;19.054;2023-04-24T11:04:00;8.05;;;6.13;;
79330;SDS011;68797;49.782;19.054;2023-04-24T11:06:37;7.25;;;6.07;;
79330;SDS011;68797;49.782;19.054;2023-04-24T11:11:36;8.88;;;6.53;;
79330;SDS011;68797;49.782;19.054;2023-04-24T11:14:07;9.23;;;6.10;;
79330;SDS011;68797;49.782;19.054;2023-04-24T11:19:24;9.95;;;7.22;;
79330;SDS011;68797;49.782;19.054;2023-04-24T11:22:03;10.45;;;6.28;;
79330;SDS011;68797;49.782;19.054;2023-04-24T11:24:49;21.35;;;6.50;;
79330;SDS011;68797;49.782;19.054;2023-04-24T11:27:43;13.45;;;6.00;;
79330;SDS011;68797;49.782;19.054;2023-04-24T11:30:12;16.98;;;6.05;;
79330;SDS011;68797;49.782;19.054;2023-04-24T11:32:54;10.95;;;5.97;;
79330;SDS011;68797;49.782;19.054;2023-04-24T11:35:22;14.77;;;7.10;;
79330;SDS011;68797;49.782;19.054;2023-04-24T11:37:52;8.27;;;6.25;;
79330;SDS011;68797;49.782;19.054;2023-04-24T11:40:21;10.43;;;5.78;;
79330;SDS011;68797;49.782;19.054;2023-04-24T11:42:50;10.55;;;6.72;;
79330;SDS011;68797;49.782;19.054;2023-04-24T11:45:25;9.55;;;7.40;;
79330;SDS011;68797;49.782;19.054;2023-04-24T11:47:59;13.02;;;7.10;;
79330;SDS011;68797;49.782;19.054;2023-04-24T11:50:27;11.90;;;6.68;;
79330;SDS011;68797;49.782;19.054;2023-04-24T11:52:56;9.43;;;7.18;;
79330;SDS011;68797;49.782;19.054;2023-04-24T11:55:24;13.43;;;7.07;;
79330;SDS011;68797;49.782;19.054;2023-04-24T11:57:54;9.95;;;7.85;;
79330;SDS011;68797;49.782;19.054;2023-04-24T12:00:23;11.23;;;8.15;;
79330;SDS011;68797;49.782;19.054;2023-04-24T12:03:08;13.13;;;8.73;;
79330;SDS011;68797;49.782;19.054;2023-04-24T12:05:37;12.98;;;8.68;;
79330;SDS011;68797;49.782;19.054;2023-04-24T12:08:28;13.07;;;8.18;;
79330;SDS011;68797;49.782;19.054;2023-04-24T12:10:55;14.25;;;8.40;;
79330;SDS011;68797;49.782;19.054;2023-04-24T12:13:25;11.65;;;8.52;;
79330;SDS011;68797;49.782;19.054;2023-04-24T12:15:52;11.38;;;8.65;;
79330;SDS011;68797;49.782;19.054;2023-04-24T12:18:21;13.07;;;8.77;;
79330;SDS011;68797;49.782;19.054;2023-04-24T12:20:50;11.27;;;8.98;;
79330;SDS011;68797;49.782;19.054;2023-04-24T12:23:28;12.68;;;8.57;;
79330;SDS011;68797;49.782;19.054;2023-04-24T12:26:05;14.32;;;9.38;;
79330;SDS011;68797;49.782;19.054;2023-04-24T12:28:36;12.32;;;8.85;;
79330;SDS011;68797;49.782;19.054;2023-04-24T12:31:16;14.48;;;8.77;;
79330;SDS011;68797;49.782;19.054;2023-04-24T12:33:43;13.10;;;8.68;;
79330;SDS011;68797;49.782;19.054;2023-04-24T12:36:10;14.52;;;9.30;;
79330;SDS011;68797;49.782;19.054;2023-04-24T12:38:39;17.33;;;9.60;;
79330;SDS011;68797;49.782;19.054;2023-04-24T12:41:12;12.88;;;9.05;;
79330;SDS011;68797;49.782;19.054;2023-04-24T12:43:51;13.75;;;8.00;;
79330;SDS011;68797;49.782;19.054;2023-04-24T12:46:19;10.88;;;7.35;;
79330;SDS011;68797;49.782;19.054;2023-04-24T12:48:47;14.70;;;7.93;;
79330;SDS011;68797;49.782;19.054;2023-04-24T12:51:13;12.63;;;7.40;;
79330;SDS011;68797;49.782;19.054;2023-04-24T12:53:40;11.25;;;7.38;;
79330;SDS011;68797;49.782;19.054;2023-04-24T12:56:07;10.55;;;7.55;;
79330;SDS011;68797;49.782;19.054;2023-04-24T13:01:00;12.48;;;6.45;;
79330;SDS011;68797;49.782;19.054;2023-04-24T13:05:53;8.50;;;5.72;;
79330;SDS011;68797;49.782;19.054;2023-04-24T13:08:20;10.65;;;7.25;;
79330;SDS011;68797;49.782;19.054;2023-04-24T13:13:13;12.10;;;6.85;;
79330;SDS011;68797;49.782;19.054;2023-04-24T13:15:40;9.35;;;6.13;;
79330;SDS011;68797;49.782;19.054;2023-04-24T13:18:08;8.30;;;6.70;;
79330;SDS011;68797;49.782;19.054;2023-04-24T13:20:35;10.27;;;6.93;;
79330;SDS011;68797;49.782;19.054;2023-04-24T13:23:16;8.55;;;6.47;;
79330;SDS011;68797;49.782;19.054;2023-04-24T13:25:43;8.25;;;6.50;;
79330;SDS011;68797;49.782;19.054;2023-04-24T13:28:10;8.55;;;6.38;;
79330;SDS011;68797;49.782;19.054;2023-04-24T13:30:38;9.48;;;6.63;;
79330;SDS011;68797;49.782;19.054;2023-04-24T13:33:07;9.25;;;6.10;;
79330;SDS011;68797;49.782;19.054;2023-04-24T13:35:33;8.10;;;6.30;;
79330;SDS011;68797;49.782;19.054;2023-04-24T13:38:00;8.43;;;6.50;;
79330;SDS011;68797;49.782;19.054;2023-04-24T13:40:34;10.05;;;6.28;;
79330;SDS011;68797;49.782;19.054;2023-04-24T13:43:02;12.23;;;8.38;;
79330;SDS011;68797;49.782;19.054;2023-04-24T13:45:29;10.98;;;6.75;;
79330;SDS011;68797;49.782;19.054;2023-04-24T13:50:23;14.88;;;8.88;;
79330;SDS011;68797;49.782;19.054;2023-04-24T13:52:52;14.80;;;8.95;;
79330;SDS011;68797;49.782;19.054;2023-04-24T13:55:20;15.07;;;9.63;;
79330;SDS011;68797;49.782;19.054;2023-04-24T13:57:47;12.75;;;8.88;;
79330;SDS011;68797;49.782;19.054;2023-04-24T14:00:18;16.60;;;9.23;;
79330;SDS011;68797;49.782;19.054;2023-04-24T14:02:46;15.38;;;10.00;;
79330;SDS011;68797;49.782;19.054;2023-04-24T14:05:16;15.32;;;10.15;;
79330;SDS011;68797;49.782;19.054;2023-04-24T14:07:46;18.17;;;9.80;;
79330;SDS011;68797;49.782;19.054;2023-04-24T14:10:14;16.15;;;10.27;;
79330;SDS011;68797;49.782;19.054;2023-04-24T14:12:41;13.32;;;8.48;;
79330;SDS011;68797;49.782;19.054;2023-04-24T14:15:08;14.52;;;9.70;;
79330;SDS011;68797;49.782;19.054;2023-04-24T14:17:41;11.13;;;8.05;;
79330;SDS011;68797;49.782;19.054;2023-04-24T14:20:11;12.02;;;7.70;;
79330;SDS011;68797;49.782;19.054;2023-04-24T14:22:40;9.98;;;7.47;;
79330;SDS011;68797;49.782;19.054;2023-04-24T14:25:07;11.18;;;7.13;;
79330;SDS011;68797;49.782;19.054;2023-04-24T14:27:35;8.73;;;7.00;;
79330;SDS011;68797;49.782;19.054;2023-04-24T14:30:04;10.02;;;7.00;;
79330;SDS011;68797;49.782;19.054;2023-04-24T14:32:30;9.20;;;7.05;;
79330;SDS011;68797;49.782;19.054;2023-04-24T14:34:58;10.40;;;6.72;;
79330;SDS011;68797;49.782;19.054;2023-04-24T14:37:25;11.38;;;7.72;;
79330;SDS011;68797;49.782;19.054;2023-04-24T14:39:52;11.95;;;8.30;;
79330;SDS011;68797;49.782;19.054;2023-04-24T14:42:18;14.23;;;10.18;;
79330;SDS011;68797;49.782;19.054;2023-04-24T14:44:46;16.10;;;11.20;;
79330;SDS011;68797;49.782;19.054;2023-04-24T14:47:13;17.45;;;11.05;;
79330;SDS011;68797;49.782;19.054;2023-04-24T14:49:42;19.45;;;12.18;;
79330;SDS011;68797;49.782;19.054;2023-04-24T14:52:10;17.48;;;10.52;;
79330;SDS011;68797;49.782;19.054;2023-04-24T14:54:38;14.65;;;9.65;;
79330;SDS011;68797;49.782;19.054;2023-04-24T14:57:05;14.35;;;10.02;;
79330;SDS011;68797;49.782;19.054;2023-04-24T14:59:34;13.48;;;9.60;;
79330;SDS011;68797;49.782;19.054;2023-04-24T15:02:00;14.25;;;10.43;;
79330;SDS011;68797;49.782;19.054;2023-04-24T15:04:27;16.05;;;10.73;;
79330;SDS011;68797;49.782;19.054;2023-04-24T15:06:55;17.30;;;11.75;;
79330;SDS011;68797;49.782;19.054;2023-04-24T15:09:22;18.85;;;11.43;;
79330;SDS011;68797;49.782;19.054;2023-04-24T15:11:51;20.15;;;12.77;;
79330;SDS011;68797;49.782;19.054;2023-04-24T15:14:18;19.80;;;13.38;;
79330;SDS011;68797;49.782;19.054;2023-04-24T15:16:45;23.58;;;14.23;;
79330;SDS011;68797;49.782;19.054;2023-04-24T15:19:15;23.13;;;13.50;;
79330;SDS011;68797;49.782;19.054;2023-04-24T15:21:41;19.80;;;13.20;;
79330;SDS011;68797;49.782;19.054;2023-04-24T15:24:11;20.98;;;13.40;;
79330;SDS011;68797;49.782;19.054;2023-04-24T15:26:37;24.92;;;14.57;;
79330;SDS011;68797;49.782;19.054;2023-04-24T15:29:07;22.45;;;14.02;;
79330;SDS011;68797;49.782;19.054;2023-04-24T15:31:34;25.38;;;13.98;;
79330;SDS011;68797;49.782;19.054;2023-04-24T15:34:01;22.65;;;14.23;;
79330;SDS011;68797;49.782;19.054;2023-04-24T15:36:27;29.67;;;16.55;;